createdAt,value
2019-04-29T00:01:11.056Z,7.73
2019-04-29T00:03:36.869Z,7.62
2019-04-29T00:06:02.853Z,7.62
2019-04-29T00:08:28.638Z,7.65
2019-04-29T00:10:54.420Z,7.66
2019-04-29T00:13:20.338Z,7.65
2019-04-29T00:16:04.427Z,7.66
2019-04-29T00:18:41.102Z,7.66
2019-04-29T00:21:06.895Z,7.66
2019-04-29T00:23:32.810Z,7.72
2019-04-29T00:25:58.581Z,7.64
2019-04-29T00:28:24.375Z,7.62
2019-04-29T00:30:50.172Z,7.63
2019-04-29T00:33:16.065Z,7.58
2019-04-29T00:35:41.865Z,7.55
2019-04-29T00:38:09.550Z,7.60
2019-04-29T00:40:53.619Z,7.57
2019-04-29T00:43:24.067Z,7.57
2019-04-29T00:45:49.872Z,7.55
2019-04-29T00:48:15.652Z,7.55
2019-04-29T00:50:41.444Z,7.53
2019-04-29T00:53:07.320Z,7.58
2019-04-29T00:55:33.520Z,7.69
2019-04-29T00:57:59.304Z,7.64
2019-04-29T01:00:27.408Z,7.62
2019-04-29T01:02:53.196Z,7.66
2019-04-29T01:05:19.398Z,7.70
2019-04-29T01:07:45.280Z,7.71
2019-04-29T01:10:11.768Z,7.74
2019-04-29T01:12:37.845Z,7.73
2019-04-29T01:15:04.436Z,7.77
2019-04-29T01:17:30.228Z,7.83
2019-04-29T01:19:56.043Z,7.90
2019-04-29T01:22:21.837Z,7.93
2019-04-29T01:24:47.610Z,7.90
2019-04-29T01:27:24.307Z,7.89
2019-04-29T01:29:50.093Z,7.87
2019-04-29T01:32:15.990Z,7.89
2019-04-29T01:34:52.599Z,7.94
2019-04-29T01:37:18.389Z,7.92
2019-04-29T01:40:03.850Z,7.92
2019-04-29T01:42:31.545Z,7.92
2019-04-29T01:44:57.334Z,8.02
2019-04-29T01:47:23.118Z,8.04
2019-04-29T01:49:48.896Z,8.04
2019-04-29T01:52:14.701Z,8.05
2019-04-29T01:54:40.471Z,8.12
2019-04-29T01:57:06.287Z,8.09
2019-04-29T01:59:32.075Z,8.17
2019-04-29T02:01:57.865Z,8.17
2019-04-29T02:04:23.651Z,8.17
2019-04-29T02:06:49.461Z,8.17
2019-04-29T02:09:17.137Z,8.22
2019-04-29T02:11:42.923Z,8.15
2019-04-29T02:14:08.723Z,8.16
2019-04-29T02:16:34.494Z,8.24
2019-04-29T02:19:00.294Z,8.25
2019-04-29T02:21:26.167Z,8.24
2019-04-29T02:23:53.850Z,8.25
2019-04-29T02:26:19.631Z,8.24
2019-04-29T02:28:45.430Z,8.28
2019-04-29T02:31:29.262Z,8.33
2019-04-29T02:33:55.066Z,8.33
2019-04-29T02:36:20.855Z,8.31
2019-04-29T02:38:54.434Z,8.32
2019-04-29T02:41:22.114Z,8.27
2019-04-29T02:43:52.688Z,8.33
2019-04-29T02:46:18.467Z,8.31
2019-04-29T02:48:44.266Z,8.32
2019-04-29T02:51:11.940Z,8.38
2019-04-29T02:53:37.742Z,8.34
2019-04-29T02:56:03.524Z,8.32
2019-04-29T02:58:40.087Z,8.40
2019-04-29T03:01:24.256Z,8.40
2019-04-29T03:04:10.010Z,8.37
2019-04-29T03:06:35.793Z,8.39
2019-04-29T03:09:01.684Z,8.42
2019-04-29T03:11:27.560Z,8.44
2019-04-29T03:13:53.325Z,8.43
2019-04-29T03:16:19.137Z,8.41
2019-04-29T03:18:52.599Z,8.42
2019-04-29T03:21:22.927Z,8.46
2019-04-29T03:23:48.712Z,8.48
2019-04-29T03:26:14.500Z,8.48
2019-04-29T03:28:40.289Z,8.55
2019-04-29T03:31:06.085Z,8.54
2019-04-29T03:33:31.891Z,8.53
2019-04-29T03:35:57.666Z,8.53
2019-04-29T03:38:23.463Z,8.62
2019-04-29T03:40:49.243Z,8.60
2019-04-29T03:43:15.047Z,8.62
2019-04-29T03:45:40.854Z,8.56
2019-04-29T03:48:06.620Z,8.60
2019-04-29T03:50:32.414Z,8.67
2019-04-29T03:52:58.321Z,8.59
2019-04-29T03:55:38.192Z,8.63
2019-04-29T03:57:51.808Z,8.67
2019-04-29T04:00:18.401Z,8.72
2019-04-29T04:02:48.955Z,8.70
2019-04-29T04:05:31.655Z,8.70
2019-04-29T04:07:59.330Z,8.70
2019-04-29T04:10:25.124Z,8.79
2019-04-29T04:12:51.108Z,8.78
2019-04-29T04:15:16.917Z,8.84
2019-04-29T04:17:53.463Z,8.90
2019-04-29T04:20:19.365Z,8.86
2019-04-29T04:22:46.028Z,8.90
2019-04-29T04:25:11.920Z,8.93
2019-04-29T04:27:37.725Z,8.89
2019-04-29T04:30:05.100Z,8.95
2019-04-29T04:32:31.718Z,8.95
2019-04-29T04:34:57.502Z,9.02
2019-04-29T04:37:23.287Z,8.92
2019-04-29T04:39:49.084Z,9.01
2019-04-29T04:42:14.884Z,8.92
2019-04-29T04:44:49.459Z,8.94
2019-04-29T04:47:16.455Z,8.97
2019-04-29T04:49:42.252Z,9.02
2019-04-29T04:52:08.143Z,9.02
2019-04-29T04:54:33.916Z,8.96
2019-04-29T04:56:59.710Z,9.09
2019-04-29T04:59:25.487Z,9.03
2019-04-29T05:01:51.289Z,9.03
2019-04-29T05:04:17.067Z,9.05
2019-04-29T05:06:42.855Z,9.10
2019-04-29T05:09:08.736Z,9.09
2019-04-29T05:11:34.627Z,9.05
2019-04-29T05:14:00.405Z,9.08
2019-04-29T05:16:26.212Z,9.19
2019-04-29T05:18:51.993Z,9.17
2019-04-29T05:21:17.772Z,9.14
2019-04-29T05:23:43.568Z,9.14
2019-04-29T05:26:09.376Z,9.19
2019-04-29T05:28:35.164Z,9.23
2019-04-29T05:31:00.942Z,9.22
2019-04-29T05:33:26.763Z,9.20
2019-04-29T05:36:02.122Z,9.27
2019-04-29T05:38:41.507Z,9.23
2019-04-29T05:41:07.304Z,9.20
2019-04-29T05:43:51.404Z,9.20
2019-04-29T05:46:28.023Z,9.24
2019-04-29T05:48:53.843Z,9.24
2019-04-29T05:51:33.325Z,9.27
2019-04-29T05:54:01.018Z,9.32
2019-04-29T05:56:26.806Z,9.32
2019-04-29T05:58:52.599Z,9.38
2019-04-29T06:01:20.289Z,9.34
2019-04-29T06:03:46.089Z,9.33
2019-04-29T06:06:12.367Z,9.33
2019-04-29T06:08:39.218Z,9.33
2019-04-29T06:11:05.261Z,9.25
2019-04-29T06:13:31.060Z,9.25
2019-04-29T06:15:56.831Z,9.28
2019-04-29T06:18:23.785Z,9.27
2019-04-29T06:20:49.640Z,9.24
2019-04-29T06:23:19.000Z,9.24
2019-04-29T06:25:43.126Z,9.31
2019-04-29T06:28:08.953Z,9.35
2019-04-29T06:30:38.710Z,9.33
2019-04-29T06:33:02.836Z,9.28
2019-04-29T06:35:28.642Z,9.28
2019-04-29T06:37:54.422Z,9.28
2019-04-29T06:40:20.220Z,9.38
2019-04-29T06:42:49.376Z,9.36
2019-04-29T06:45:14.011Z,9.39
2019-04-29T06:47:39.795Z,9.39
2019-04-29T06:50:06.484Z,9.29
2019-04-29T06:52:32.274Z,9.40
2019-04-29T06:54:58.070Z,9.40
2019-04-29T06:57:23.855Z,9.36
2019-04-29T06:59:49.650Z,9.30
2019-04-29T07:02:16.121Z,9.32
2019-04-29T07:04:42.035Z,9.40
2019-04-29T07:07:07.819Z,9.40
2019-04-29T07:09:33.592Z,9.45
2019-04-29T07:12:01.587Z,9.43
2019-04-29T07:14:28.338Z,9.38
2019-04-29T07:16:54.766Z,9.45
2019-04-29T07:19:22.214Z,9.45
2019-04-29T07:21:51.471Z,9.35
2019-04-29T07:24:16.273Z,9.35
2019-04-29T07:26:42.163Z,9.34
2019-04-29T07:29:08.399Z,9.40
2019-04-29T07:31:35.212Z,9.35
2019-04-29T07:34:01.065Z,9.31
2019-04-29T07:36:26.928Z,9.31
2019-04-29T07:38:56.650Z,9.30
2019-04-29T07:41:20.824Z,9.31
2019-04-29T07:43:46.692Z,9.31
2019-04-29T07:46:16.353Z,9.34
2019-04-29T07:48:43.737Z,9.35
2019-04-29T07:51:09.696Z,9.27
2019-04-29T07:53:44.775Z,9.27
2019-04-29T07:56:06.392Z,9.39
2019-04-29T07:58:31.094Z,9.34
2019-04-29T08:00:56.910Z,9.23
2019-04-29T08:03:22.701Z,9.24
2019-04-29T08:05:50.089Z,9.22
2019-04-29T08:08:16.568Z,9.16
2019-04-29T08:10:53.998Z,9.16
2019-04-29T08:13:15.071Z,9.30
2019-04-29T08:15:41.612Z,9.30
2019-04-29T08:18:11.266Z,9.30
2019-04-29T08:20:39.832Z,9.30
2019-04-29T08:23:04.214Z,9.42
2019-04-29T08:25:30.060Z,9.48
2019-04-29T08:27:55.855Z,9.48
2019-04-29T08:30:21.816Z,9.49
2019-04-29T08:32:47.606Z,9.58
2019-04-29T08:35:13.426Z,9.76
2019-04-29T08:37:39.199Z,9.80
2019-04-29T08:40:15.823Z,9.82
2019-04-29T08:42:37.238Z,10.00
2019-04-29T08:45:23.303Z,10.01
2019-04-29T08:47:49.993Z,10.04
2019-04-29T08:50:15.787Z,10.13
2019-04-29T08:52:41.561Z,9.93
2019-04-29T08:55:07.458Z,9.92
2019-04-29T08:57:36.491Z,9.97
2019-04-29T09:00:01.135Z,10.20
2019-04-29T09:02:35.135Z,10.36
2019-04-29T09:04:54.741Z,10.22
2019-04-29T09:07:22.218Z,10.40
2019-04-29T09:09:48.573Z,10.65
2019-04-29T09:12:14.407Z,10.63
2019-04-29T09:14:40.201Z,10.64
2019-04-29T09:17:19.592Z,10.72
2019-04-29T09:19:33.780Z,10.82
2019-04-29T09:22:01.460Z,10.84
2019-04-29T09:24:27.260Z,10.91
2019-04-29T09:26:57.792Z,11.13
2019-04-29T09:29:29.120Z,11.30
2019-04-29T09:31:55.103Z,11.32
2019-04-29T09:34:24.704Z,11.33
2019-04-29T09:36:49.774Z,11.43
2019-04-29T09:39:15.690Z,11.58
2019-04-29T09:41:46.177Z,11.63
2019-04-29T09:44:13.855Z,11.97
2019-04-29T09:46:39.644Z,12.22
2019-04-29T09:49:05.426Z,12.31
2019-04-29T09:51:31.214Z,12.54
2019-04-29T09:53:57.000Z,12.59
2019-04-29T09:56:22.787Z,12.41
2019-04-29T09:58:50.480Z,12.53
2019-04-29T10:01:20.375Z,12.88
2019-04-29T10:03:56.608Z,13.07
2019-04-29T10:06:33.158Z,13.20
2019-04-29T10:08:58.945Z,13.24
2019-04-29T10:11:24.935Z,13.42
2019-04-29T10:13:50.725Z,13.42
2019-04-29T10:16:24.255Z,13.63
2019-04-29T10:18:51.942Z,13.79
2019-04-29T10:21:21.379Z,13.80
2019-04-29T10:23:46.014Z,13.67
2019-04-29T10:26:11.805Z,13.55
2019-04-29T10:28:39.492Z,13.76
2019-04-29T10:31:05.997Z,13.56
2019-04-29T10:33:31.880Z,13.90
2019-04-29T10:35:57.675Z,14.15
2019-04-29T10:38:23.476Z,14.27
2019-04-29T10:41:05.787Z,14.05
2019-04-29T10:43:53.631Z,13.94
2019-04-29T10:46:31.440Z,13.84
2019-04-29T10:49:07.956Z,13.81
2019-04-29T10:51:33.858Z,13.90
2019-04-29T10:53:59.641Z,14.14
2019-04-29T10:56:25.510Z,14.30
2019-04-29T10:58:51.300Z,14.42
2019-04-29T11:01:29.561Z,14.42
2019-04-29T11:04:00.853Z,14.39
2019-04-29T11:06:23.817Z,14.34
2019-04-29T11:08:54.044Z,14.44
2019-04-29T11:11:23.273Z,14.90
2019-04-29T11:13:50.468Z,15.75
2019-04-29T11:16:15.335Z,15.56
2019-04-29T11:18:41.139Z,15.76
2019-04-29T11:21:08.936Z,15.69
2019-04-29T11:23:50.689Z,16.12
2019-04-29T11:26:34.073Z,16.47
2019-04-29T11:28:59.967Z,16.12
2019-04-29T11:31:25.843Z,15.82
2019-04-29T11:33:59.608Z,15.91
2019-04-29T11:36:26.495Z,16.54
2019-04-29T11:38:52.485Z,17.01
2019-04-29T11:41:19.940Z,17.43
2019-04-29T11:43:46.726Z,17.69
2019-04-29T11:46:14.525Z,17.08
2019-04-29T11:48:41.462Z,17.06
2019-04-29T11:51:18.054Z,17.99
2019-04-29T11:53:44.252Z,17.21
2019-04-29T11:56:10.041Z,16.81
2019-04-29T11:58:49.611Z,17.11
2019-04-29T12:01:38.774Z,16.96
2019-04-29T12:04:10.636Z,17.10
2019-04-29T12:06:36.528Z,17.66
2019-04-29T12:09:06.665Z,17.89
2019-04-29T12:11:35.861Z,17.21
2019-04-29T12:14:04.752Z,17.30
2019-04-29T12:16:32.536Z,17.55
2019-04-29T12:19:02.755Z,17.91
2019-04-29T12:21:33.121Z,17.54
2019-04-29T12:23:59.711Z,17.69
2019-04-29T12:26:26.505Z,17.59
2019-04-29T12:28:52.290Z,17.84
2019-04-29T12:31:25.581Z,17.88
2019-04-29T12:33:59.140Z,17.64
2019-04-29T12:36:24.939Z,17.64
2019-04-29T12:38:52.908Z,17.76
2019-04-29T12:41:21.478Z,17.39
2019-04-29T12:43:59.814Z,17.61
2019-04-29T12:46:36.109Z,17.43
2019-04-29T12:49:03.531Z,17.44
2019-04-29T12:51:29.611Z,17.82
2019-04-29T12:53:55.393Z,17.93
2019-04-29T12:56:26.001Z,17.50
2019-04-29T12:58:50.923Z,17.48
2019-04-29T13:01:50.337Z,17.61
2019-04-29T13:04:02.559Z,17.46
2019-04-29T13:06:39.539Z,17.60
2019-04-29T13:09:02.635Z,17.94
2019-04-29T13:11:37.540Z,17.92
2019-04-29T13:14:01.253Z,17.92
2019-04-29T13:16:41.901Z,18.10
2019-04-29T13:19:29.809Z,18.21
2019-04-29T13:21:53.765Z,17.91
2019-04-29T13:24:24.780Z,17.77
2019-04-29T13:26:47.232Z,18.01
2019-04-29T13:29:26.179Z,18.42
2019-04-29T13:31:40.713Z,18.55
2019-04-29T13:34:22.866Z,18.37
2019-04-29T13:36:36.087Z,18.13
2019-04-29T13:39:04.169Z,18.35
2019-04-29T13:41:29.982Z,17.97
2019-04-29T13:44:04.096Z,18.07
2019-04-29T13:46:30.339Z,17.94
2019-04-29T13:49:13.339Z,17.46
2019-04-29T13:51:47.986Z,17.58
2019-04-29T13:54:13.768Z,17.46
2019-04-29T13:56:55.544Z,17.57
2019-04-29T13:59:10.717Z,17.51
2019-04-29T14:01:58.448Z,17.47
2019-04-29T14:04:11.159Z,17.54
2019-04-29T14:06:38.863Z,17.40
2019-04-29T14:09:06.664Z,17.17
2019-04-29T14:11:32.499Z,17.20
2019-04-29T14:13:58.349Z,17.09
2019-04-29T14:16:24.133Z,16.81
2019-04-29T14:18:50.283Z,16.79
2019-04-29T14:21:16.099Z,16.79
2019-04-29T14:23:41.887Z,16.85
2019-04-29T14:26:07.668Z,16.49
2019-04-29T14:28:33.464Z,16.38
2019-04-29T14:30:59.265Z,16.31
2019-04-29T14:33:26.964Z,16.22
2019-04-29T14:35:54.666Z,16.25
2019-04-29T14:38:22.470Z,16.13
2019-04-29T14:40:48.156Z,16.27
2019-04-29T14:43:32.456Z,16.34
2019-04-29T14:46:06.016Z,16.23
2019-04-29T14:48:42.203Z,16.34
2019-04-29T14:51:02.300Z,16.23
2019-04-29T14:53:28.201Z,16.15
2019-04-29T14:55:53.992Z,16.20
2019-04-29T14:58:19.786Z,16.15
2019-04-29T15:00:50.450Z,16.10
2019-04-29T15:03:16.400Z,16.10
2019-04-29T15:05:42.181Z,16.09
2019-04-29T15:08:08.040Z,16.05
2019-04-29T15:10:36.921Z,16.09
2019-04-29T15:13:20.546Z,16.07
2019-04-29T15:16:04.372Z,16.14
2019-04-29T15:18:47.572Z,16.10
2019-04-29T15:20:57.202Z,16.08
2019-04-29T15:23:29.314Z,16.07
2019-04-29T15:25:50.748Z,16.20
2019-04-29T15:28:18.942Z,16.13
2019-04-29T15:30:44.251Z,16.10
2019-04-29T15:33:10.033Z,16.12
2019-04-29T15:35:35.836Z,16.10
2019-04-29T15:38:01.617Z,16.02
2019-04-29T15:40:28.765Z,16.03
2019-04-29T15:42:54.736Z,15.93
2019-04-29T15:45:20.521Z,16.00
2019-04-29T15:47:47.168Z,16.14
2019-04-29T15:50:18.957Z,15.97
2019-04-29T15:52:40.887Z,16.04
2019-04-29T15:55:06.778Z,16.04
2019-04-29T15:57:33.837Z,15.93
2019-04-29T16:00:20.550Z,15.86
2019-04-29T16:02:35.817Z,16.00
2019-04-29T16:05:22.788Z,16.01
2019-04-29T16:07:57.251Z,15.94
2019-04-29T16:10:30.822Z,15.87
2019-04-29T16:13:01.278Z,15.84
2019-04-29T16:15:27.147Z,15.84
2019-04-29T16:17:52.931Z,15.82
2019-04-29T16:20:18.725Z,15.74
2019-04-29T16:22:44.500Z,15.65
2019-04-29T16:25:12.907Z,15.64
2019-04-29T16:27:41.647Z,15.75
2019-04-29T16:30:06.450Z,15.66
2019-04-29T16:32:41.137Z,15.57
2019-04-29T16:35:08.039Z,15.52
2019-04-29T16:37:33.828Z,15.49
2019-04-29T16:40:01.116Z,15.55
2019-04-29T16:42:29.007Z,15.44
2019-04-29T16:44:54.786Z,15.37
2019-04-29T16:47:21.072Z,15.37
2019-04-29T16:49:46.938Z,15.30
2019-04-29T16:52:12.749Z,15.31
2019-04-29T16:54:38.491Z,15.33
2019-04-29T16:57:04.475Z,15.23
2019-04-29T16:59:30.252Z,15.17
2019-04-29T17:01:56.129Z,15.10
2019-04-29T17:04:21.909Z,15.11
2019-04-29T17:07:11.138Z,15.11
2019-04-29T17:09:33.693Z,15.10
2019-04-29T17:12:01.075Z,15.10
2019-04-29T17:14:26.858Z,14.96
2019-04-29T17:16:52.645Z,14.97
2019-04-29T17:19:18.550Z,14.95
2019-04-29T17:21:44.435Z,14.85
2019-04-29T17:24:10.320Z,14.82
2019-04-29T17:26:38.095Z,14.83
2019-04-29T17:29:26.922Z,14.75
2019-04-29T17:31:38.961Z,14.69
2019-04-29T17:34:09.994Z,14.62
2019-04-29T17:36:35.743Z,14.57
2019-04-29T17:39:01.548Z,14.49
2019-04-29T17:41:27.345Z,14.40
2019-04-29T17:44:03.912Z,14.36
2019-04-29T17:46:34.380Z,14.36
2019-04-29T17:49:18.364Z,14.29
2019-04-29T17:51:45.968Z,14.18
2019-04-29T17:54:19.618Z,14.14
2019-04-29T17:57:25.161Z,14.08
2019-04-29T17:59:52.173Z,13.95
2019-04-29T18:02:22.132Z,13.89
2019-04-29T18:05:05.911Z,13.82
2019-04-29T18:07:35.163Z,13.63
2019-04-29T18:10:08.636Z,13.56
2019-04-29T18:12:41.066Z,13.57
2019-04-29T18:15:02.475Z,13.42
2019-04-29T18:17:31.260Z,13.34
2019-04-29T18:20:02.031Z,13.23
2019-04-29T18:22:29.710Z,13.05
2019-04-29T18:24:59.963Z,13.04
2019-04-29T18:27:27.653Z,12.90
2019-04-29T18:29:55.045Z,12.81
2019-04-29T18:32:32.634Z,12.72
2019-04-29T18:34:48.781Z,12.64
2019-04-29T18:37:16.488Z,12.53
2019-04-29T18:39:42.288Z,12.43
2019-04-29T18:42:08.262Z,12.27
2019-04-29T18:44:35.656Z,12.23
2019-04-29T18:47:01.639Z,12.08
2019-04-29T18:49:27.429Z,12.04
2019-04-29T18:51:53.337Z,11.96
2019-04-29T18:54:19.127Z,11.79
2019-04-29T18:56:45.666Z,11.59
2019-04-29T18:59:11.531Z,11.47
2019-04-29T19:01:37.328Z,11.33
2019-04-29T19:04:10.127Z,11.25
2019-04-29T19:06:35.747Z,11.25
2019-04-29T19:09:02.784Z,11.16
2019-04-29T19:11:32.412Z,11.04
2019-04-29T19:13:56.291Z,10.96
2019-04-29T19:16:23.310Z,10.82
2019-04-29T19:18:51.983Z,10.74
2019-04-29T19:21:16.895Z,10.65
2019-04-29T19:23:42.694Z,10.54
2019-04-29T19:26:08.493Z,10.45
2019-04-29T19:28:34.667Z,10.34
2019-04-29T19:31:03.042Z,10.26
2019-04-29T19:33:30.701Z,10.21
2019-04-29T19:35:57.429Z,10.10
2019-04-29T19:38:25.203Z,9.97
2019-04-29T19:40:51.008Z,9.80
2019-04-29T19:43:18.890Z,9.80
2019-04-29T19:45:48.523Z,9.84
2019-04-29T19:48:12.252Z,9.77
2019-04-29T19:50:38.136Z,9.74
2019-04-29T19:53:04.970Z,9.66
2019-04-29T19:55:33.279Z,9.55
2019-04-29T19:58:00.130Z,9.38
2019-04-29T20:00:29.289Z,9.38
2019-04-29T20:02:59.404Z,9.30
2019-04-29T20:05:50.220Z,9.09
2019-04-29T20:08:37.875Z,9.01
2019-04-29T20:10:48.219Z,8.92
2019-04-29T20:13:12.501Z,8.90
2019-04-29T20:15:45.451Z,8.82
2019-04-29T20:18:23.734Z,8.83
2019-04-29T20:20:47.800Z,8.83
2019-04-29T20:23:15.753Z,8.75
2019-04-29T20:25:41.709Z,8.64
2019-04-29T20:28:12.661Z,8.55
2019-04-29T20:30:35.460Z,8.50
2019-04-29T20:33:08.729Z,8.50
2019-04-29T20:35:29.256Z,8.48
2019-04-29T20:37:56.701Z,8.42
2019-04-29T20:40:22.876Z,8.39
2019-04-29T20:42:49.525Z,8.39
2019-04-29T20:45:15.762Z,8.34
2019-04-29T20:47:45.432Z,8.19
2019-04-29T20:50:13.970Z,8.21
2019-04-29T20:52:47.162Z,8.14
2019-04-29T20:55:13.374Z,8.14
2019-04-29T20:57:39.980Z,8.09
2019-04-29T21:00:06.936Z,8.07
2019-04-29T21:02:35.369Z,7.98
2019-04-29T21:05:00.646Z,7.88
2019-04-29T21:07:26.505Z,7.88
2019-04-29T21:09:52.293Z,7.89
2019-04-29T21:12:20.671Z,7.85
2019-04-29T21:14:48.547Z,7.88
2019-04-29T21:17:27.958Z,7.85
2019-04-29T21:19:42.128Z,7.74
2019-04-29T21:22:07.905Z,7.66
2019-04-29T21:24:35.341Z,7.63
2019-04-29T21:27:01.191Z,7.53
2019-04-29T21:29:27.210Z,7.50
2019-04-29T21:31:58.395Z,7.44
2019-04-29T21:34:22.589Z,7.34
2019-04-29T21:36:52.977Z,7.34
2019-04-29T21:39:26.431Z,7.29
2019-04-29T21:42:05.983Z,7.26
2019-04-29T21:44:31.806Z,7.16
2019-04-29T21:46:59.541Z,7.13
2019-04-29T21:49:25.774Z,7.18
2019-04-29T21:51:51.729Z,7.22
2019-04-29T21:54:17.511Z,7.21
2019-04-29T21:56:44.445Z,7.19
2019-04-29T21:59:12.323Z,7.12
2019-04-29T22:01:38.271Z,7.05
2019-04-29T22:04:04.440Z,7.02
2019-04-29T22:06:30.237Z,6.97
2019-04-29T22:09:01.258Z,6.89
2019-04-29T22:11:25.411Z,6.87
2019-04-29T22:13:51.480Z,6.82
2019-04-29T22:16:17.468Z,6.73
2019-04-29T22:18:44.773Z,6.77
2019-04-29T22:21:16.895Z,6.72
2019-04-29T22:23:38.664Z,6.74
2019-04-29T22:26:05.065Z,6.67
2019-04-29T22:28:30.944Z,6.59
2019-04-29T22:30:56.926Z,6.54
2019-04-29T22:33:22.711Z,6.52
2019-04-29T22:35:48.528Z,6.47
2019-04-29T22:38:16.273Z,6.43
2019-04-29T22:40:42.896Z,6.38
2019-04-29T22:43:10.773Z,6.35
2019-04-29T22:45:36.635Z,6.34
2019-04-29T22:48:14.204Z,6.38
2019-04-29T22:50:33.607Z,6.37
2019-04-29T22:53:01.176Z,6.34
2019-04-29T22:55:25.839Z,6.29
2019-04-29T22:57:51.913Z,6.25
2019-04-29T23:00:19.721Z,6.21
2019-04-29T23:02:45.671Z,6.22
2019-04-29T23:05:11.631Z,6.17
2019-04-29T23:07:37.767Z,6.15
2019-04-29T23:10:05.715Z,6.13
2019-04-29T23:12:31.605Z,6.09
2019-04-29T23:14:58.533Z,6.05
2019-04-29T23:17:25.494Z,5.99
2019-04-29T23:19:53.303Z,5.93
2019-04-29T23:22:37.478Z,5.87
2019-04-29T23:25:05.713Z,5.81
2019-04-29T23:27:31.563Z,5.81
2019-04-29T23:29:57.383Z,5.82
2019-04-29T23:32:25.225Z,5.81
2019-04-29T23:34:50.930Z,5.78
2019-04-29T23:37:19.536Z,5.74
2019-04-29T23:39:45.700Z,5.69
2019-04-29T23:42:12.707Z,5.65
2019-04-29T23:44:42.489Z,5.68
2019-04-29T23:47:10.244Z,5.69
2019-04-29T23:49:42.352Z,5.65
2019-04-29T23:52:02.595Z,5.64
2019-04-29T23:54:28.501Z,5.57
2019-04-29T23:57:02.074Z,5.55
2019-04-29T23:59:41.667Z,5.55
